createdAt,value
2023-03-17T00:01:06.528Z,53.60
2023-03-17T00:03:33.056Z,53.60
2023-03-17T00:05:59.586Z,53.10
2023-03-17T00:08:26.084Z,53.20
2023-03-17T00:10:52.584Z,53.10
2023-03-17T00:13:19.052Z,53.20
2023-03-17T00:15:45.569Z,53.10
2023-03-17T00:18:12.081Z,53.10
2023-03-17T00:20:38.574Z,53.00
2023-03-17T00:23:05.066Z,53.10
2023-03-17T00:25:31.548Z,53.40
2023-03-17T00:27:58.013Z,53.00
2023-03-17T00:30:24.500Z,53.00
2023-03-17T00:32:51.018Z,53.20
2023-03-17T00:35:17.548Z,53.00
2023-03-17T00:37:44.024Z,53.00
2023-03-17T00:40:10.491Z,53.00
2023-03-17T00:42:36.969Z,53.00
2023-03-17T00:45:03.454Z,53.00
2023-03-17T00:47:29.939Z,52.90
2023-03-17T00:49:56.417Z,53.00
2023-03-17T00:52:22.897Z,53.00
2023-03-17T00:54:49.381Z,53.00
2023-03-17T00:57:15.858Z,53.10
2023-03-17T00:59:42.357Z,53.10
2023-03-17T01:02:08.899Z,53.20
2023-03-17T01:04:35.423Z,53.20
2023-03-17T01:07:01.906Z,53.10
2023-03-17T01:09:28.414Z,53.10
2023-03-17T01:11:54.930Z,53.10
2023-03-17T01:14:21.412Z,53.80
2023-03-17T01:16:48.039Z,53.10
2023-03-17T01:19:14.618Z,53.30
2023-03-17T01:21:41.106Z,53.20
2023-03-17T01:24:07.584Z,53.00
2023-03-17T01:26:34.091Z,53.10
2023-03-17T01:29:00.574Z,53.10
2023-03-17T01:31:27.089Z,53.30
2023-03-17T01:33:53.586Z,53.20
2023-03-17T01:36:20.054Z,53.30
2023-03-17T01:38:46.533Z,53.20
2023-03-17T01:41:13.000Z,53.10
2023-03-17T01:43:39.500Z,53.20
2023-03-17T01:46:06.020Z,53.50
2023-03-17T01:48:32.486Z,53.70
2023-03-17T01:50:58.968Z,53.30
2023-03-17T01:53:25.480Z,53.80
2023-03-17T01:55:51.954Z,53.80
2023-03-17T01:58:18.437Z,53.30
2023-03-17T02:00:44.957Z,53.40
2023-03-17T02:03:11.473Z,53.50
2023-03-17T02:11:19.603Z,53.30
2023-03-17T02:13:46.089Z,53.20
2023-03-17T02:16:12.604Z,53.30
2023-03-17T02:18:39.079Z,53.40
2023-03-17T02:21:05.565Z,53.30
2023-03-17T02:23:32.060Z,53.30
2023-03-17T02:25:58.536Z,53.10
2023-03-17T02:28:25.016Z,53.50
2023-03-17T02:30:51.562Z,53.30
2023-03-17T02:33:18.063Z,53.40
2023-03-17T02:35:44.637Z,53.20
2023-03-17T02:38:11.143Z,53.20
2023-03-17T02:40:37.633Z,53.10
2023-03-17T02:43:04.120Z,53.80
2023-03-17T02:45:30.604Z,53.30
2023-03-17T02:47:57.096Z,53.10
2023-03-17T02:50:23.596Z,53.00
2023-03-17T02:52:50.072Z,53.10
2023-03-17T02:55:16.562Z,53.10
2023-03-17T02:57:44.161Z,52.90
2023-03-17T03:00:10.660Z,52.90
2023-03-17T03:02:37.153Z,53.20
2023-03-17T03:05:03.663Z,53.30
2023-03-17T03:07:30.149Z,53.20
2023-03-17T03:09:56.631Z,53.00
2023-03-17T03:12:23.114Z,53.00
2023-03-17T03:14:49.609Z,53.60
2023-03-17T03:17:16.107Z,53.30
2023-03-17T03:19:42.605Z,53.10
2023-03-17T03:22:09.116Z,53.60
2023-03-17T03:24:35.610Z,53.20
2023-03-17T03:27:02.115Z,53.00
2023-03-17T03:29:28.609Z,53.30
2023-03-17T03:31:55.096Z,53.00
2023-03-17T03:34:21.584Z,53.10
2023-03-17T03:36:48.119Z,53.00
2023-03-17T03:39:14.683Z,53.10
2023-03-17T03:41:41.179Z,53.30
2023-03-17T03:44:07.681Z,53.20
2023-03-17T03:46:34.258Z,53.30
2023-03-17T03:49:00.820Z,53.30
2023-03-17T03:51:27.325Z,53.10
2023-03-17T03:53:53.808Z,53.50
2023-03-17T03:56:20.321Z,53.20
2023-03-17T03:58:46.812Z,53.10
2023-03-17T04:01:13.307Z,53.10
2023-03-17T04:03:39.799Z,53.10
2023-03-17T04:06:06.307Z,53.10
2023-03-17T04:08:32.801Z,53.10
2023-03-17T04:10:59.347Z,53.10
2023-03-17T04:13:25.859Z,53.10
2023-03-17T04:15:52.393Z,53.10
2023-03-17T04:18:18.912Z,53.10
2023-03-17T04:20:45.423Z,53.20
2023-03-17T04:23:11.922Z,53.10
2023-03-17T04:25:38.447Z,53.10
2023-03-17T04:28:04.936Z,53.10
2023-03-17T04:30:31.796Z,53.20
2023-03-17T04:32:58.627Z,53.20
2023-03-17T04:35:25.191Z,53.80
2023-03-17T04:37:51.731Z,53.10
2023-03-17T04:40:18.255Z,53.40
2023-03-17T04:42:44.753Z,53.10
2023-03-17T04:45:11.350Z,53.00
2023-03-17T04:47:37.884Z,53.20
2023-03-17T04:50:04.394Z,53.50
2023-03-17T04:52:30.922Z,53.20
2023-03-17T04:54:57.407Z,53.10
2023-03-17T04:57:23.905Z,53.00
2023-03-17T04:59:50.378Z,53.20
2023-03-17T05:02:16.925Z,53.10
2023-03-17T05:04:43.442Z,53.00
2023-03-17T05:07:09.964Z,53.10
2023-03-17T05:09:36.460Z,53.10
2023-03-17T05:12:02.960Z,53.20
2023-03-17T05:14:29.443Z,53.30
2023-03-17T05:16:55.949Z,53.10
2023-03-17T05:19:22.443Z,52.90
2023-03-17T05:21:48.962Z,53.20
2023-03-17T05:24:15.443Z,53.10
2023-03-17T05:26:41.936Z,53.10
2023-03-17T05:29:08.432Z,53.10
2023-03-17T05:31:34.928Z,53.10
2023-03-17T05:34:01.396Z,53.10
2023-03-17T05:36:27.887Z,53.10
2023-03-17T05:38:54.385Z,53.00
2023-03-17T05:41:20.891Z,53.10
2023-03-17T05:43:47.366Z,52.90
2023-03-17T05:46:14.033Z,53.70
2023-03-17T05:48:40.548Z,53.10
2023-03-17T05:51:07.046Z,53.80
2023-03-17T05:53:33.546Z,53.10
2023-03-17T05:56:00.054Z,53.20
2023-03-17T05:58:26.532Z,53.10
2023-03-17T06:00:53.024Z,53.10
2023-03-17T06:03:19.562Z,53.00
2023-03-17T06:05:46.087Z,53.30
2023-03-17T06:08:12.608Z,53.10
2023-03-17T06:10:39.115Z,53.10
2023-03-17T06:13:05.596Z,53.10
2023-03-17T06:15:32.360Z,52.90
2023-03-17T06:17:59.074Z,53.10
2023-03-17T06:20:25.582Z,53.00
2023-03-17T06:23:03.330Z,53.10
2023-03-17T06:25:30.982Z,53.10
2023-03-17T06:27:57.665Z,53.00
2023-03-17T06:30:24.177Z,52.90
2023-03-17T06:32:50.704Z,53.20
2023-03-17T06:35:17.208Z,52.90
2023-03-17T06:37:43.718Z,52.90
2023-03-17T06:40:10.208Z,52.90
2023-03-17T06:42:36.716Z,52.90
2023-03-17T06:45:03.199Z,52.90
2023-03-17T06:47:29.702Z,52.90
2023-03-17T06:49:56.205Z,52.90
2023-03-17T06:52:22.781Z,52.80
2023-03-17T06:54:49.276Z,52.80
2023-03-17T06:57:15.790Z,52.90
2023-03-17T06:59:42.262Z,53.00
2023-03-17T07:02:08.924Z,53.10
2023-03-17T07:04:35.594Z,52.90
2023-03-17T07:07:02.137Z,53.00
2023-03-17T07:09:28.637Z,52.90
2023-03-17T07:11:55.157Z,52.80
2023-03-17T07:14:21.637Z,52.90
2023-03-17T07:16:48.201Z,53.40
2023-03-17T07:19:14.708Z,53.00
2023-03-17T07:21:41.249Z,53.40
2023-03-17T07:24:07.737Z,53.00
2023-03-17T07:26:34.242Z,53.00
2023-03-17T07:29:00.760Z,53.10
2023-03-17T07:31:27.444Z,53.60
2023-03-17T07:33:56.293Z,53.30
2023-03-17T07:36:23.779Z,53.40
2023-03-17T07:38:50.262Z,53.90
2023-03-17T07:41:16.761Z,53.90
2023-03-17T07:43:43.296Z,53.50
2023-03-17T07:46:09.851Z,53.90
2023-03-17T07:48:36.359Z,53.80
2023-03-17T07:51:02.860Z,53.40
2023-03-17T07:53:29.374Z,53.60
2023-03-17T07:55:55.873Z,53.90
2023-03-17T07:58:22.373Z,53.40
2023-03-17T08:00:48.875Z,53.20
2023-03-17T08:03:15.417Z,53.30
2023-03-17T08:05:42.010Z,53.30
2023-03-17T08:08:08.567Z,53.50
2023-03-17T08:10:35.516Z,53.30
2023-03-17T08:13:02.390Z,53.20
2023-03-17T08:15:28.874Z,53.40
2023-03-17T08:17:55.373Z,53.40
2023-03-17T08:20:21.941Z,53.30
2023-03-17T08:22:48.434Z,53.20
2023-03-17T08:25:15.060Z,53.40
2023-03-17T08:27:41.569Z,53.50
2023-03-17T08:30:08.070Z,53.40
2023-03-17T08:32:34.640Z,53.40
2023-03-17T08:35:01.153Z,53.30
2023-03-17T08:37:27.655Z,53.30
2023-03-17T08:39:54.154Z,53.30
2023-03-17T08:42:20.664Z,53.30
2023-03-17T08:44:47.136Z,53.30
2023-03-17T08:47:13.625Z,53.40
2023-03-17T08:49:40.098Z,53.60
2023-03-17T08:52:06.593Z,53.40
2023-03-17T08:54:33.079Z,53.50
2023-03-17T08:56:59.585Z,53.50
2023-03-17T08:59:26.085Z,53.50
2023-03-17T09:01:55.079Z,53.40
2023-03-17T09:04:21.570Z,53.40
2023-03-17T09:07:02.209Z,53.70
2023-03-17T09:09:30.019Z,53.80
2023-03-17T09:11:56.500Z,53.90
2023-03-17T09:14:22.993Z,53.90
2023-03-17T09:16:49.638Z,53.90
2023-03-17T09:19:19.058Z,53.50
2023-03-17T09:21:45.555Z,54.00
2023-03-17T09:24:12.030Z,53.80
2023-03-17T09:26:38.536Z,53.80
2023-03-17T09:29:05.027Z,53.80
2023-03-17T09:31:31.628Z,53.80
2023-03-17T09:33:58.153Z,54.10
2023-03-17T09:36:24.644Z,53.80
2023-03-17T09:38:51.141Z,53.60
2023-03-17T09:41:17.638Z,53.70
2023-03-17T09:43:44.119Z,53.70
2023-03-17T09:46:10.776Z,53.60
2023-03-17T09:48:37.304Z,53.60
2023-03-17T09:51:07.112Z,53.70
2023-03-17T09:53:33.597Z,53.50
2023-03-17T09:56:00.102Z,53.70
2023-03-17T09:58:26.600Z,53.60
2023-03-17T10:00:53.101Z,53.80
2023-03-17T10:03:19.629Z,53.80
2023-03-17T10:05:46.201Z,53.80
2023-03-17T10:08:29.014Z,53.80
2023-03-17T10:10:56.955Z,53.90
2023-03-17T10:13:23.464Z,54.50
2023-03-17T10:15:49.984Z,53.90
2023-03-17T10:18:16.738Z,53.90
2023-03-17T10:20:43.269Z,53.90
2023-03-17T10:23:09.775Z,54.00
2023-03-17T10:25:36.278Z,54.00
2023-03-17T10:28:02.795Z,53.90
2023-03-17T10:30:29.689Z,54.10
2023-03-17T10:32:56.372Z,54.10
2023-03-17T10:35:22.934Z,54.00
2023-03-17T10:37:49.473Z,54.10
2023-03-17T10:40:17.585Z,54.10
2023-03-17T10:42:45.015Z,54.20
2023-03-17T10:45:11.505Z,54.10
2023-03-17T10:47:37.993Z,54.20
2023-03-17T10:50:04.513Z,54.80
2023-03-17T10:52:31.015Z,54.20
2023-03-17T10:54:57.514Z,54.30
2023-03-17T10:57:23.987Z,54.20
2023-03-17T10:59:50.476Z,54.30
2023-03-17T11:02:16.975Z,54.20
2023-03-17T11:04:43.472Z,54.30
2023-03-17T11:07:09.962Z,54.40
2023-03-17T11:09:36.436Z,54.30
2023-03-17T11:12:02.934Z,54.30
2023-03-17T11:14:29.453Z,54.40
2023-03-17T11:16:55.943Z,54.50
2023-03-17T11:19:22.418Z,54.50
2023-03-17T11:21:48.915Z,54.40
2023-03-17T11:24:19.220Z,54.40
2023-03-17T11:26:45.704Z,54.50
2023-03-17T11:29:12.201Z,54.40
2023-03-17T11:31:38.777Z,54.50
2023-03-17T11:34:05.406Z,54.50
2023-03-17T11:36:31.934Z,54.50
2023-03-17T11:38:58.445Z,54.50
2023-03-17T11:41:24.935Z,54.50
2023-03-17T11:43:51.410Z,54.50
2023-03-17T11:46:17.993Z,54.70
2023-03-17T11:48:44.544Z,54.80
2023-03-17T11:51:11.042Z,54.80
2023-03-17T11:53:37.536Z,54.90
2023-03-17T11:56:04.042Z,55.00
2023-03-17T11:58:30.549Z,55.00
2023-03-17T12:00:57.093Z,55.20
2023-03-17T12:03:23.669Z,55.20
2023-03-17T12:05:50.197Z,55.30
2023-03-17T12:08:16.706Z,55.30
2023-03-17T12:10:43.189Z,55.30
2023-03-17T12:13:09.699Z,55.20
2023-03-17T12:15:36.226Z,55.30
2023-03-17T12:18:02.730Z,55.30
2023-03-17T12:20:29.562Z,55.50
2023-03-17T12:22:57.129Z,55.50
2023-03-17T12:25:23.725Z,55.60
2023-03-17T12:27:50.192Z,55.50
2023-03-17T12:30:16.667Z,55.50
2023-03-17T12:32:43.203Z,55.50
2023-03-17T12:35:09.757Z,55.60
2023-03-17T12:37:36.236Z,55.70
2023-03-17T12:40:02.740Z,55.80
2023-03-17T12:42:29.233Z,55.80
2023-03-17T12:44:55.735Z,55.80
2023-03-17T12:47:22.230Z,56.00
2023-03-17T12:49:48.709Z,56.00
2023-03-17T12:52:15.172Z,56.10
2023-03-17T12:54:41.657Z,56.10
2023-03-17T12:57:13.257Z,56.00
2023-03-17T12:59:39.735Z,56.00
2023-03-17T13:02:06.263Z,56.10
2023-03-17T13:04:32.762Z,56.20
2023-03-17T13:06:59.274Z,56.20
2023-03-17T13:09:25.774Z,56.10
2023-03-17T13:11:52.266Z,56.20
2023-03-17T13:14:18.764Z,56.20
2023-03-17T13:16:45.249Z,56.10
2023-03-17T13:19:11.736Z,56.10
2023-03-17T13:21:38.228Z,56.20
2023-03-17T13:24:04.700Z,56.20
2023-03-17T13:26:31.202Z,56.30
2023-03-17T13:28:57.699Z,56.40
2023-03-17T13:31:24.196Z,56.50
2023-03-17T13:33:50.702Z,56.40
2023-03-17T13:36:17.234Z,56.40
2023-03-17T13:38:43.778Z,56.40
2023-03-17T13:41:10.509Z,56.40
2023-03-17T13:43:37.002Z,56.50
2023-03-17T13:46:03.483Z,56.60
2023-03-17T13:48:29.966Z,56.50
2023-03-17T13:50:56.456Z,56.50
2023-03-17T13:53:22.929Z,56.60
2023-03-17T13:55:49.467Z,56.60
2023-03-17T13:58:19.478Z,56.60
2023-03-17T14:00:46.017Z,56.70
2023-03-17T14:03:12.572Z,56.70
2023-03-17T14:05:39.079Z,56.70
2023-03-17T14:08:05.605Z,56.70
2023-03-17T14:10:32.124Z,56.80
2023-03-17T14:12:58.609Z,56.90
2023-03-17T14:15:25.313Z,57.00
2023-03-17T14:17:51.797Z,57.00
2023-03-17T14:20:18.324Z,57.10
2023-03-17T14:22:45.807Z,57.10
2023-03-17T14:25:12.459Z,57.10
2023-03-17T14:27:38.935Z,57.00
2023-03-17T14:30:05.454Z,57.50
2023-03-17T14:32:32.049Z,57.20
2023-03-17T14:34:58.618Z,57.20
2023-03-17T14:37:25.119Z,57.70
2023-03-17T14:39:51.623Z,57.20
2023-03-17T14:42:18.107Z,57.10
2023-03-17T14:44:44.592Z,57.20
2023-03-17T14:47:12.199Z,57.20
2023-03-17T14:49:38.735Z,57.10
2023-03-17T14:52:05.221Z,57.10
2023-03-17T14:54:31.735Z,57.20
2023-03-17T14:56:58.230Z,57.80
2023-03-17T14:59:24.717Z,57.20
2023-03-17T15:01:51.222Z,57.10
2023-03-17T15:04:17.721Z,57.20
2023-03-17T15:06:44.212Z,57.20
2023-03-17T15:09:10.713Z,57.10
2023-03-17T15:11:37.216Z,57.40
2023-03-17T15:14:03.768Z,57.40
2023-03-17T15:16:31.451Z,57.50
2023-03-17T15:18:57.998Z,57.50
2023-03-17T15:21:24.508Z,57.50
2023-03-17T15:23:50.992Z,57.50
2023-03-17T15:26:17.475Z,57.60
2023-03-17T15:28:43.975Z,57.60
2023-03-17T15:31:10.460Z,57.60
2023-03-17T15:33:36.992Z,57.70
2023-03-17T15:36:03.512Z,57.70
2023-03-17T15:38:30.031Z,57.70
2023-03-17T15:40:56.534Z,57.80
2023-03-17T15:43:26.199Z,57.80
2023-03-17T15:45:52.700Z,57.80
2023-03-17T15:48:19.188Z,57.80
2023-03-17T15:50:45.654Z,57.80
2023-03-17T15:53:12.121Z,57.80
2023-03-17T15:55:43.426Z,57.90
2023-03-17T15:58:09.911Z,57.90
2023-03-17T16:00:36.415Z,57.90
2023-03-17T16:03:02.902Z,57.90
2023-03-17T16:05:31.432Z,57.90
2023-03-17T16:07:57.926Z,57.90
2023-03-17T16:10:24.434Z,57.90
2023-03-17T16:12:50.922Z,58.00
2023-03-17T16:15:22.873Z,57.90
2023-03-17T16:17:49.704Z,57.90
2023-03-17T16:20:16.224Z,58.00
2023-03-17T16:22:42.724Z,58.10
2023-03-17T16:25:09.249Z,58.00
2023-03-17T16:27:35.733Z,58.00
2023-03-17T16:30:02.358Z,58.00
2023-03-17T16:32:28.945Z,58.00
2023-03-17T16:34:55.457Z,58.20
2023-03-17T16:37:21.957Z,58.20
2023-03-17T16:39:48.456Z,58.40
2023-03-17T16:42:14.956Z,58.30
2023-03-17T16:44:41.489Z,58.40
2023-03-17T16:47:08.007Z,58.40
2023-03-17T16:49:34.498Z,58.40
2023-03-17T16:52:01.003Z,58.50
2023-03-17T16:54:27.508Z,58.40
2023-03-17T16:56:54.097Z,58.50
2023-03-17T16:59:25.664Z,58.50
2023-03-17T17:01:52.196Z,58.50
2023-03-17T17:04:18.674Z,58.40
2023-03-17T17:06:45.158Z,58.50
2023-03-17T17:09:11.666Z,58.50
2023-03-17T17:11:38.207Z,59.10
2023-03-17T17:14:04.700Z,58.50
2023-03-17T17:16:31.235Z,58.60
2023-03-17T17:18:57.740Z,58.50
2023-03-17T17:21:24.253Z,58.50
2023-03-17T17:23:52.934Z,58.60
2023-03-17T17:26:19.693Z,58.60
2023-03-17T17:28:46.186Z,58.50
2023-03-17T17:31:12.731Z,58.60
2023-03-17T17:33:39.229Z,58.60
2023-03-17T17:36:05.837Z,58.60
2023-03-17T17:38:32.429Z,58.60
2023-03-17T17:40:58.912Z,58.70
2023-03-17T17:43:25.415Z,58.60
2023-03-17T17:45:51.947Z,58.60
2023-03-17T17:48:18.440Z,58.70
2023-03-17T17:50:44.924Z,58.60
2023-03-17T17:53:11.402Z,58.60
2023-03-17T17:55:43.537Z,58.70
2023-03-17T17:58:10.068Z,58.70
2023-03-17T18:00:36.562Z,58.80
2023-03-17T18:03:03.056Z,58.90
2023-03-17T18:05:29.576Z,58.70
2023-03-17T18:07:56.077Z,58.70
2023-03-17T18:10:22.570Z,58.90
2023-03-17T18:12:49.056Z,58.80
2023-03-17T18:15:15.560Z,58.70
2023-03-17T18:17:42.042Z,58.80
2023-03-17T18:20:08.528Z,58.80
2023-03-17T18:22:35.011Z,58.80
2023-03-17T18:25:01.510Z,58.70
2023-03-17T18:27:28.002Z,58.70
2023-03-17T18:29:54.524Z,58.60
2023-03-17T18:32:21.030Z,58.50
2023-03-17T18:34:47.533Z,58.60
2023-03-17T18:37:14.025Z,58.50
2023-03-17T18:39:40.501Z,58.50
2023-03-17T18:42:06.979Z,58.60
2023-03-17T18:44:33.478Z,58.60
2023-03-17T18:46:59.968Z,58.60
2023-03-17T18:49:26.451Z,58.60
2023-03-17T18:51:52.977Z,58.60
2023-03-17T18:54:19.471Z,58.70
2023-03-17T18:56:45.956Z,58.60
2023-03-17T18:59:12.446Z,58.60
2023-03-17T19:01:39.065Z,58.60
2023-03-17T19:04:05.566Z,58.60
2023-03-17T19:06:32.047Z,58.60
2023-03-17T19:08:58.527Z,58.60
2023-03-17T19:11:25.026Z,58.70
2023-03-17T19:13:51.501Z,58.50
2023-03-17T19:16:18.040Z,58.60
2023-03-17T19:18:44.564Z,58.70
2023-03-17T19:21:11.050Z,58.60
2023-03-17T19:23:37.537Z,58.70
2023-03-17T19:26:04.026Z,58.60
2023-03-17T19:28:30.516Z,58.70
2023-03-17T19:30:57.064Z,58.70
2023-03-17T19:33:23.578Z,58.70
2023-03-17T19:35:50.091Z,58.70
2023-03-17T19:38:16.606Z,58.70
2023-03-17T19:40:43.101Z,58.70
2023-03-17T19:43:09.596Z,58.70
2023-03-17T19:45:36.074Z,58.70
2023-03-17T19:48:02.555Z,58.70
2023-03-17T19:50:29.312Z,58.70
2023-03-17T19:52:56.084Z,58.80
2023-03-17T19:55:22.588Z,58.70
2023-03-17T19:57:49.077Z,58.70
2023-03-17T20:00:15.576Z,58.80
2023-03-17T20:02:42.075Z,58.70
2023-03-17T20:05:08.602Z,58.70
2023-03-17T20:07:35.133Z,58.70
2023-03-17T20:10:01.646Z,58.70
2023-03-17T20:12:28.146Z,58.80
2023-03-17T20:14:54.640Z,58.70
2023-03-17T20:17:21.137Z,58.60
2023-03-17T20:19:47.644Z,58.70
2023-03-17T20:22:14.121Z,58.70
2023-03-17T20:24:40.607Z,58.60
2023-03-17T20:27:07.177Z,58.70
2023-03-17T20:29:33.645Z,58.70
2023-03-17T20:32:00.127Z,58.70
2023-03-17T20:34:26.588Z,58.80
2023-03-17T20:36:53.100Z,58.70
2023-03-17T20:39:19.588Z,58.80
2023-03-17T20:41:46.096Z,58.70
2023-03-17T20:44:12.595Z,58.70
2023-03-17T20:46:39.161Z,58.60
2023-03-17T20:49:05.688Z,58.70
2023-03-17T20:51:32.180Z,58.70
2023-03-17T20:53:58.676Z,58.70
2023-03-17T20:56:25.147Z,58.70
2023-03-17T20:58:51.621Z,58.60
2023-03-17T21:01:20.784Z,58.70
2023-03-17T21:03:47.566Z,58.60
2023-03-17T21:06:14.058Z,58.70
2023-03-17T21:08:40.561Z,58.60
2023-03-17T21:11:07.071Z,58.60
2023-03-17T21:13:33.556Z,58.70
2023-03-17T21:16:00.089Z,58.60
2023-03-17T21:18:26.610Z,58.70
2023-03-17T21:20:53.105Z,58.70
2023-03-17T21:23:19.591Z,58.70
2023-03-17T21:25:46.081Z,58.80
2023-03-17T21:28:12.594Z,58.90
2023-03-17T21:30:39.097Z,58.80
2023-03-17T21:33:05.733Z,58.90
2023-03-17T21:35:37.707Z,59.00
2023-03-17T21:38:04.229Z,59.00
2023-03-17T21:40:30.935Z,59.10
2023-03-17T21:42:57.593Z,59.10
2023-03-17T21:45:24.145Z,59.10
2023-03-17T21:47:50.631Z,59.20
2023-03-17T21:50:19.686Z,59.30
2023-03-17T21:52:46.254Z,59.30
2023-03-17T21:55:12.771Z,59.30
2023-03-17T21:57:39.252Z,59.40
2023-03-17T22:00:05.761Z,59.30
2023-03-17T22:02:32.252Z,59.40
2023-03-17T22:04:58.733Z,59.50
2023-03-17T22:07:25.217Z,59.60
2023-03-17T22:09:51.703Z,59.50
2023-03-17T22:12:18.176Z,59.70
2023-03-17T22:14:44.663Z,59.70
2023-03-17T22:17:11.155Z,59.80
2023-03-17T22:19:37.652Z,59.80
2023-03-17T22:22:04.136Z,59.80
2023-03-17T22:24:30.625Z,59.80
2023-03-17T22:26:57.114Z,60.00
2023-03-17T22:29:23.618Z,59.90
2023-03-17T22:31:50.146Z,60.00
2023-03-17T22:34:16.681Z,60.00
2023-03-17T22:36:43.194Z,60.00
2023-03-17T22:39:09.696Z,60.10
2023-03-17T22:41:36.212Z,60.10
2023-03-17T22:44:02.694Z,60.10
2023-03-17T22:46:29.189Z,60.20
2023-03-17T22:48:55.682Z,60.40
2023-03-17T22:51:22.176Z,60.40
2023-03-17T22:53:48.664Z,60.40
2023-03-17T22:56:15.166Z,60.40
2023-03-17T22:58:41.657Z,60.30
2023-03-17T23:01:08.159Z,60.50
2023-03-17T23:03:34.665Z,60.50
2023-03-17T23:06:01.200Z,60.50
2023-03-17T23:08:27.704Z,60.50
2023-03-17T23:10:54.191Z,60.70
2023-03-17T23:13:20.677Z,60.80
2023-03-17T23:15:47.175Z,60.90
2023-03-17T23:18:13.662Z,61.00
2023-03-17T23:20:40.165Z,60.70
2023-03-17T23:23:06.658Z,60.80
2023-03-17T23:25:33.144Z,61.00
2023-03-17T23:27:59.641Z,61.10
2023-03-17T23:30:26.147Z,61.10
2023-03-17T23:32:52.699Z,61.00
2023-03-17T23:35:19.260Z,61.00
2023-03-17T23:37:45.738Z,61.00
2023-03-17T23:40:12.250Z,61.00
2023-03-17T23:42:38.730Z,61.10
2023-03-17T23:45:05.236Z,60.90
2023-03-17T23:47:31.734Z,61.00
2023-03-17T23:49:58.230Z,61.00
2023-03-17T23:52:24.721Z,60.90
2023-03-17T23:54:51.254Z,60.90
2023-03-17T23:57:17.760Z,61.70
2023-03-17T23:59:44.250Z,61.00
